sensor_id;sensor_type;location;lat;lon;timestamp;temperature;humidity
12588;DHT22;6359;51.450;7.346;2023-04-24T00:01:21;10.80;99.90
12588;DHT22;6359;51.450;7.346;2023-04-24T00:03:48;10.90;99.90
12588;DHT22;6359;51.450;7.346;2023-04-24T00:06:14;10.80;99.90
12588;DHT22;6359;51.450;7.346;2023-04-24T00:08:42;10.80;99.90
12588;DHT22;6359;51.450;7.346;2023-04-24T00:11:09;10.80;99.90
12588;DHT22;6359;51.450;7.346;2023-04-24T00:13:37;10.80;99.90
12588;DHT22;6359;51.450;7.346;2023-04-24T00:16:05;10.70;99.90
12588;DHT22;6359;51.450;7.346;2023-04-24T00:18:31;10.70;99.90
12588;DHT22;6359;51.450;7.346;2023-04-24T00:20:58;10.70;99.90
12588;DHT22;6359;51.450;7.346;2023-04-24T00:23:25;10.60;99.90
12588;DHT22;6359;51.450;7.346;2023-04-24T00:25:52;10.60;99.90
12588;DHT22;6359;51.450;7.346;2023-04-24T00:28:19;10.50;99.90
12588;DHT22;6359;51.450;7.346;2023-04-24T00:30:47;10.50;99.90
12588;DHT22;6359;51.450;7.346;2023-04-24T00:33:14;10.40;99.90
12588;DHT22;6359;51.450;7.346;2023-04-24T00:35:41;10.30;99.90
12588;DHT22;6359;51.450;7.346;2023-04-24T00:38:08;10.30;99.90
12588;DHT22;6359;51.450;7.346;2023-04-24T00:40:35;10.30;99.90
12588;DHT22;6359;51.450;7.346;2023-04-24T00:43:01;10.30;99.90
12588;DHT22;6359;51.450;7.346;2023-04-24T00:45:29;10.20;99.90
12588;DHT22;6359;51.450;7.346;2023-04-24T00:47:58;10.20;99.90
12588;DHT22;6359;51.450;7.346;2023-04-24T00:50:26;10.10;99.90
12588;DHT22;6359;51.450;7.346;2023-04-24T00:52:53;10.10;99.90
12588;DHT22;6359;51.450;7.346;2023-04-24T00:55:20;10.20;99.90
12588;DHT22;6359;51.450;7.346;2023-04-24T00:57:47;10.20;99.90
12588;DHT22;6359;51.450;7.346;2023-04-24T01:00:15;10.10;99.90
12588;DHT22;6359;51.450;7.346;2023-04-24T01:02:43;10.10;99.90
12588;DHT22;6359;51.450;7.346;2023-04-24T01:05:12;10.00;99.90
12588;DHT22;6359;51.450;7.346;2023-04-24T01:07:41;10.00;99.90
12588;DHT22;6359;51.450;7.346;2023-04-24T01:10:11;10.00;99.90
12588;DHT22;6359;51.450;7.346;2023-04-24T01:12:38;10.00;99.90
12588;DHT22;6359;51.450;7.346;2023-04-24T01:15:06;10.00;99.90
12588;DHT22;6359;51.450;7.346;2023-04-24T01:17:34;10.00;99.90
12588;DHT22;6359;51.450;7.346;2023-04-24T01:20:01;10.00;99.90
12588;DHT22;6359;51.450;7.346;2023-04-24T01:22:33;10.00;99.90
12588;DHT22;6359;51.450;7.346;2023-04-24T01:25:00;10.00;99.90
12588;DHT22;6359;51.450;7.346;2023-04-24T01:27:27;10.00;99.90
12588;DHT22;6359;51.450;7.346;2023-04-24T01:29:54;10.10;99.90
12588;DHT22;6359;51.450;7.346;2023-04-24T01:32:21;10.20;99.90
12588;DHT22;6359;51.450;7.346;2023-04-24T01:34:48;10.20;99.90
12588;DHT22;6359;51.450;7.346;2023-04-24T01:37:15;10.30;99.90
12588;DHT22;6359;51.450;7.346;2023-04-24T01:39:44;10.30;99.90
12588;DHT22;6359;51.450;7.346;2023-04-24T01:42:12;10.40;99.90
12588;DHT22;6359;51.450;7.346;2023-04-24T01:44:40;10.30;99.90
12588;DHT22;6359;51.450;7.346;2023-04-24T01:47:07;10.20;99.90
12588;DHT22;6359;51.450;7.346;2023-04-24T01:49:34;10.20;99.90
12588;DHT22;6359;51.450;7.346;2023-04-24T01:52:01;10.20;99.90
12588;DHT22;6359;51.450;7.346;2023-04-24T01:54:28;10.10;99.90
12588;DHT22;6359;51.450;7.346;2023-04-24T01:56:56;10.10;99.90
12588;DHT22;6359;51.450;7.346;2023-04-24T01:59:25;10.00;99.90
12588;DHT22;6359;51.450;7.346;2023-04-24T02:01:54;10.10;99.90
12588;DHT22;6359;51.450;7.346;2023-04-24T02:04:21;10.00;99.90
12588;DHT22;6359;51.450;7.346;2023-04-24T02:06:48;10.00;99.90
12588;DHT22;6359;51.450;7.346;2023-04-24T02:09:15;10.00;99.90
12588;DHT22;6359;51.450;7.346;2023-04-24T02:11:41;10.00;99.90
12588;DHT22;6359;51.450;7.346;2023-04-24T02:14:10;9.90;99.90
12588;DHT22;6359;51.450;7.346;2023-04-24T02:16:36;10.00;99.90
12588;DHT22;6359;51.450;7.346;2023-04-24T02:19:03;9.90;99.90
12588;DHT22;6359;51.450;7.346;2023-04-24T02:21:30;9.80;99.90
12588;DHT22;6359;51.450;7.346;2023-04-24T02:23:58;9.80;99.90
12588;DHT22;6359;51.450;7.346;2023-04-24T02:26:25;9.70;99.90
12588;DHT22;6359;51.450;7.346;2023-04-24T02:28:52;9.50;99.90
12588;DHT22;6359;51.450;7.346;2023-04-24T02:31:20;9.40;99.90
12588;DHT22;6359;51.450;7.346;2023-04-24T02:33:47;9.30;99.90
12588;DHT22;6359;51.450;7.346;2023-04-24T02:36:14;9.40;99.90
12588;DHT22;6359;51.450;7.346;2023-04-24T02:38:41;9.20;99.90
12588;DHT22;6359;51.450;7.346;2023-04-24T02:41:08;9.00;99.90
12588;DHT22;6359;51.450;7.346;2023-04-24T02:43:35;9.00;99.90
12588;DHT22;6359;51.450;7.346;2023-04-24T02:46:02;8.90;99.90
12588;DHT22;6359;51.450;7.346;2023-04-24T02:48:30;8.80;99.90
12588;DHT22;6359;51.450;7.346;2023-04-24T02:50:57;8.80;99.90
12588;DHT22;6359;51.450;7.346;2023-04-24T02:53:24;8.80;99.90
12588;DHT22;6359;51.450;7.346;2023-04-24T02:55:51;8.90;99.90
12588;DHT22;6359;51.450;7.346;2023-04-24T02:58:17;8.90;99.90
12588;DHT22;6359;51.450;7.346;2023-04-24T03:00:45;9.00;99.90
12588;DHT22;6359;51.450;7.346;2023-04-24T03:03:13;9.00;99.90
12588;DHT22;6359;51.450;7.346;2023-04-24T03:05:42;9.00;99.90
12588;DHT22;6359;51.450;7.346;2023-04-24T03:08:08;9.10;99.90
12588;DHT22;6359;51.450;7.346;2023-04-24T03:10:35;9.00;99.90
12588;DHT22;6359;51.450;7.346;2023-04-24T03:13:02;9.00;99.90
12588;DHT22;6359;51.450;7.346;2023-04-24T03:15:29;9.00;99.90
12588;DHT22;6359;51.450;7.346;2023-04-24T03:17:56;8.90;99.90
12588;DHT22;6359;51.450;7.346;2023-04-24T03:20:23;9.00;99.90
12588;DHT22;6359;51.450;7.346;2023-04-24T03:22:52;9.00;99.90
12588;DHT22;6359;51.450;7.346;2023-04-24T03:25:19;9.10;99.90
12588;DHT22;6359;51.450;7.346;2023-04-24T03:27:46;9.10;99.90
12588;DHT22;6359;51.450;7.346;2023-04-24T03:30:13;9.10;99.90
12588;DHT22;6359;51.450;7.346;2023-04-24T03:32:40;9.10;99.90
12588;DHT22;6359;51.450;7.346;2023-04-24T03:35:07;9.10;99.90
12588;DHT22;6359;51.450;7.346;2023-04-24T03:37:35;9.10;99.90
12588;DHT22;6359;51.450;7.346;2023-04-24T03:40:03;9.10;99.90
12588;DHT22;6359;51.450;7.346;2023-04-24T03:42:31;9.10;99.90
12588;DHT22;6359;51.450;7.346;2023-04-24T03:44:58;9.10;99.90
12588;DHT22;6359;51.450;7.346;2023-04-24T03:47:25;9.10;99.90
12588;DHT22;6359;51.450;7.346;2023-04-24T03:49:52;9.10;99.90
12588;DHT22;6359;51.450;7.346;2023-04-24T03:52:19;9.20;99.90
12588;DHT22;6359;51.450;7.346;2023-04-24T03:54:46;9.20;99.90
12588;DHT22;6359;51.450;7.346;2023-04-24T03:57:14;9.10;99.90
12588;DHT22;6359;51.450;7.346;2023-04-24T03:59:41;9.10;99.90
12588;DHT22;6359;51.450;7.346;2023-04-24T04:02:08;9.20;99.90
12588;DHT22;6359;51.450;7.346;2023-04-24T04:04:35;9.10;99.90
12588;DHT22;6359;51.450;7.346;2023-04-24T04:07:02;9.20;99.90
12588;DHT22;6359;51.450;7.346;2023-04-24T04:09:30;9.20;99.90
12588;DHT22;6359;51.450;7.346;2023-04-24T04:11:58;9.30;99.90
12588;DHT22;6359;51.450;7.346;2023-04-24T04:14:27;9.20;99.90
12588;DHT22;6359;51.450;7.346;2023-04-24T04:16:54;9.20;99.90
12588;DHT22;6359;51.450;7.346;2023-04-24T04:19:21;9.20;99.90
12588;DHT22;6359;51.450;7.346;2023-04-24T04:21:48;9.20;99.90
12588;DHT22;6359;51.450;7.346;2023-04-24T04:24:18;9.20;99.90
12588;DHT22;6359;51.450;7.346;2023-04-24T04:26:46;9.20;99.90
12588;DHT22;6359;51.450;7.346;2023-04-24T04:29:13;9.20;99.90
12588;DHT22;6359;51.450;7.346;2023-04-24T04:31:42;9.20;99.90
12588;DHT22;6359;51.450;7.346;2023-04-24T04:34:08;9.20;99.90
12588;DHT22;6359;51.450;7.346;2023-04-24T04:36:35;9.20;99.90
12588;DHT22;6359;51.450;7.346;2023-04-24T04:39:05;9.20;99.90
12588;DHT22;6359;51.450;7.346;2023-04-24T04:41:33;9.20;99.90
12588;DHT22;6359;51.450;7.346;2023-04-24T04:44:01;9.10;99.90
12588;DHT22;6359;51.450;7.346;2023-04-24T04:46:30;9.20;99.90
12588;DHT22;6359;51.450;7.346;2023-04-24T04:49:00;9.20;99.90
12588;DHT22;6359;51.450;7.346;2023-04-24T04:51:28;9.20;99.90
12588;DHT22;6359;51.450;7.346;2023-04-24T04:53:55;9.20;99.90
12588;DHT22;6359;51.450;7.346;2023-04-24T04:56:22;9.20;99.90
12588;DHT22;6359;51.450;7.346;2023-04-24T04:58:49;9.20;99.90
12588;DHT22;6359;51.450;7.346;2023-04-24T05:01:16;9.20;99.90
12588;DHT22;6359;51.450;7.346;2023-04-24T05:03:43;9.30;99.90
12588;DHT22;6359;51.450;7.346;2023-04-24T05:06:11;9.30;99.90
12588;DHT22;6359;51.450;7.346;2023-04-24T05:08:38;9.30;99.90
12588;DHT22;6359;51.450;7.346;2023-04-24T05:11:05;9.30;99.90
12588;DHT22;6359;51.450;7.346;2023-04-24T05:13:32;9.20;99.90
12588;DHT22;6359;51.450;7.346;2023-04-24T05:15:59;9.30;99.90
12588;DHT22;6359;51.450;7.346;2023-04-24T05:18:26;9.30;99.90
12588;DHT22;6359;51.450;7.346;2023-04-24T05:20:53;9.30;99.90
12588;DHT22;6359;51.450;7.346;2023-04-24T05:23:21;9.40;99.90
12588;DHT22;6359;51.450;7.346;2023-04-24T05:25:48;9.50;99.90
12588;DHT22;6359;51.450;7.346;2023-04-24T05:28:15;9.60;99.90
12588;DHT22;6359;51.450;7.346;2023-04-24T05:30:42;9.90;99.90
12588;DHT22;6359;51.450;7.346;2023-04-24T05:33:09;10.00;99.90
12588;DHT22;6359;51.450;7.346;2023-04-24T05:35:36;10.00;99.90
12588;DHT22;6359;51.450;7.346;2023-04-24T05:38:02;9.80;99.90
12588;DHT22;6359;51.450;7.346;2023-04-24T05:40:31;9.70;99.90
12588;DHT22;6359;51.450;7.346;2023-04-24T05:42:58;9.60;99.90
12588;DHT22;6359;51.450;7.346;2023-04-24T05:45:24;9.50;99.90
12588;DHT22;6359;51.450;7.346;2023-04-24T05:47:52;9.30;99.90
12588;DHT22;6359;51.450;7.346;2023-04-24T05:50:19;9.20;99.90
12588;DHT22;6359;51.450;7.346;2023-04-24T05:52:46;9.10;99.90
12588;DHT22;6359;51.450;7.346;2023-04-24T05:55:12;9.10;99.90
12588;DHT22;6359;51.450;7.346;2023-04-24T05:57:44;8.90;99.90
12588;DHT22;6359;51.450;7.346;2023-04-24T06:00:12;8.80;99.90
12588;DHT22;6359;51.450;7.346;2023-04-24T06:02:39;8.80;99.90
12588;DHT22;6359;51.450;7.346;2023-04-24T06:05:06;8.80;99.90
12588;DHT22;6359;51.450;7.346;2023-04-24T06:07:33;8.70;99.90
12588;DHT22;6359;51.450;7.346;2023-04-24T06:10:01;8.70;99.90
12588;DHT22;6359;51.450;7.346;2023-04-24T06:12:27;8.70;99.90
12588;DHT22;6359;51.450;7.346;2023-04-24T06:14:56;8.80;99.90
12588;DHT22;6359;51.450;7.346;2023-04-24T06:17:22;8.80;99.90
12588;DHT22;6359;51.450;7.346;2023-04-24T06:19:49;8.90;99.90
12588;DHT22;6359;51.450;7.346;2023-04-24T06:22:16;8.90;99.90
12588;DHT22;6359;51.450;7.346;2023-04-24T06:24:43;9.00;99.90
12588;DHT22;6359;51.450;7.346;2023-04-24T06:27:10;8.90;99.90
12588;DHT22;6359;51.450;7.346;2023-04-24T06:29:37;9.00;99.90
12588;DHT22;6359;51.450;7.346;2023-04-24T06:32:05;9.00;99.90
12588;DHT22;6359;51.450;7.346;2023-04-24T06:34:32;9.00;99.90
12588;DHT22;6359;51.450;7.346;2023-04-24T06:36:59;8.90;99.90
12588;DHT22;6359;51.450;7.346;2023-04-24T06:39:26;9.00;99.90
12588;DHT22;6359;51.450;7.346;2023-04-24T06:41:53;8.90;99.90
12588;DHT22;6359;51.450;7.346;2023-04-24T06:44:20;8.90;99.90
12588;DHT22;6359;51.450;7.346;2023-04-24T06:46:47;8.90;99.90
12588;DHT22;6359;51.450;7.346;2023-04-24T06:49:15;9.00;99.90
12588;DHT22;6359;51.450;7.346;2023-04-24T06:51:42;9.10;99.90
12588;DHT22;6359;51.450;7.346;2023-04-24T06:54:10;9.10;99.90
12588;DHT22;6359;51.450;7.346;2023-04-24T06:56:37;9.10;99.90
12588;DHT22;6359;51.450;7.346;2023-04-24T06:59:04;9.20;99.90
12588;DHT22;6359;51.450;7.346;2023-04-24T07:01:30;9.20;99.90
12588;DHT22;6359;51.450;7.346;2023-04-24T07:03:57;9.20;99.90
12588;DHT22;6359;51.450;7.346;2023-04-24T07:06:26;9.40;99.90
12588;DHT22;6359;51.450;7.346;2023-04-24T07:08:53;9.40;99.90
12588;DHT22;6359;51.450;7.346;2023-04-24T07:11:21;9.40;99.90
12588;DHT22;6359;51.450;7.346;2023-04-24T07:13:48;9.30;99.90
12588;DHT22;6359;51.450;7.346;2023-04-24T07:16:15;9.30;99.90
12588;DHT22;6359;51.450;7.346;2023-04-24T07:18:42;9.30;99.90
12588;DHT22;6359;51.450;7.346;2023-04-24T07:21:09;9.30;99.90
12588;DHT22;6359;51.450;7.346;2023-04-24T07:23:38;9.30;99.90
12588;DHT22;6359;51.450;7.346;2023-04-24T07:26:06;9.30;99.90
12588;DHT22;6359;51.450;7.346;2023-04-24T07:28:33;9.40;99.90
12588;DHT22;6359;51.450;7.346;2023-04-24T07:31:00;9.60;99.90
12588;DHT22;6359;51.450;7.346;2023-04-24T07:33:27;9.50;99.90
12588;DHT22;6359;51.450;7.346;2023-04-24T07:35:54;9.30;99.90
12588;DHT22;6359;51.450;7.346;2023-04-24T07:38:21;9.10;99.90
12588;DHT22;6359;51.450;7.346;2023-04-24T07:40:49;8.80;99.90
12588;DHT22;6359;51.450;7.346;2023-04-24T07:43:16;8.70;99.90
12588;DHT22;6359;51.450;7.346;2023-04-24T07:45:43;8.60;99.90
12588;DHT22;6359;51.450;7.346;2023-04-24T07:48:10;8.70;99.90
12588;DHT22;6359;51.450;7.346;2023-04-24T07:50:36;8.80;99.90
12588;DHT22;6359;51.450;7.346;2023-04-24T07:53:03;8.80;99.90
12588;DHT22;6359;51.450;7.346;2023-04-24T07:55:30;8.90;99.90
12588;DHT22;6359;51.450;7.346;2023-04-24T07:57:59;9.00;99.90
12588;DHT22;6359;51.450;7.346;2023-04-24T08:00:25;9.20;99.90
12588;DHT22;6359;51.450;7.346;2023-04-24T08:02:52;9.30;99.90
12588;DHT22;6359;51.450;7.346;2023-04-24T08:05:19;9.20;99.90
12588;DHT22;6359;51.450;7.346;2023-04-24T08:07:46;9.20;99.90
12588;DHT22;6359;51.450;7.346;2023-04-24T08:10:14;9.20;99.90
12588;DHT22;6359;51.450;7.346;2023-04-24T08:12:41;9.00;99.90
12588;DHT22;6359;51.450;7.346;2023-04-24T08:15:10;8.90;99.90
12588;DHT22;6359;51.450;7.346;2023-04-24T08:17:37;8.90;99.90
12588;DHT22;6359;51.450;7.346;2023-04-24T08:20:05;9.10;99.90
12588;DHT22;6359;51.450;7.346;2023-04-24T08:22:35;9.10;99.90
12588;DHT22;6359;51.450;7.346;2023-04-24T08:25:02;9.00;99.90
12588;DHT22;6359;51.450;7.346;2023-04-24T08:27:29;9.00;99.90
12588;DHT22;6359;51.450;7.346;2023-04-24T08:29:57;9.10;99.90
12588;DHT22;6359;51.450;7.346;2023-04-24T08:32:25;9.10;99.90
12588;DHT22;6359;51.450;7.346;2023-04-24T08:34:53;9.10;99.90
12588;DHT22;6359;51.450;7.346;2023-04-24T08:37:21;9.20;99.90
12588;DHT22;6359;51.450;7.346;2023-04-24T08:39:49;9.10;99.90
12588;DHT22;6359;51.450;7.346;2023-04-24T08:42:17;9.00;99.90
12588;DHT22;6359;51.450;7.346;2023-04-24T08:44:44;8.80;99.90
12588;DHT22;6359;51.450;7.346;2023-04-24T08:47:12;8.60;99.90
12588;DHT22;6359;51.450;7.346;2023-04-24T08:49:40;8.40;99.90
12588;DHT22;6359;51.450;7.346;2023-04-24T08:52:07;8.40;99.90
12588;DHT22;6359;51.450;7.346;2023-04-24T08:54:34;8.40;99.90
12588;DHT22;6359;51.450;7.346;2023-04-24T08:57:03;8.30;99.90
12588;DHT22;6359;51.450;7.346;2023-04-24T08:59:30;8.30;99.90
12588;DHT22;6359;51.450;7.346;2023-04-24T09:01:57;8.20;99.90
12588;DHT22;6359;51.450;7.346;2023-04-24T09:04:25;8.10;99.90
12588;DHT22;6359;51.450;7.346;2023-04-24T09:06:55;7.90;99.90
12588;DHT22;6359;51.450;7.346;2023-04-24T09:09:23;7.70;99.90
12588;DHT22;6359;51.450;7.346;2023-04-24T09:11:51;7.70;99.90
12588;DHT22;6359;51.450;7.346;2023-04-24T09:14:20;7.60;99.90
12588;DHT22;6359;51.450;7.346;2023-04-24T09:16:49;7.60;99.90
12588;DHT22;6359;51.450;7.346;2023-04-24T09:19:16;7.60;99.90
12588;DHT22;6359;51.450;7.346;2023-04-24T09:21:46;7.60;99.90
12588;DHT22;6359;51.450;7.346;2023-04-24T09:24:17;7.60;99.90
12588;DHT22;6359;51.450;7.346;2023-04-24T09:26:45;7.80;99.90
12588;DHT22;6359;51.450;7.346;2023-04-24T09:29:15;8.00;99.90
12588;DHT22;6359;51.450;7.346;2023-04-24T09:31:43;8.00;99.90
12588;DHT22;6359;51.450;7.346;2023-04-24T09:34:10;8.10;99.90
12588;DHT22;6359;51.450;7.346;2023-04-24T09:36:38;8.20;99.90
12588;DHT22;6359;51.450;7.346;2023-04-24T09:39:08;8.30;99.90
12588;DHT22;6359;51.450;7.346;2023-04-24T09:41:44;8.50;99.90
12588;DHT22;6359;51.450;7.346;2023-04-24T09:44:12;8.50;99.90
12588;DHT22;6359;51.450;7.346;2023-04-24T09:46:42;8.40;99.90
12588;DHT22;6359;51.450;7.346;2023-04-24T09:49:10;8.40;99.90
12588;DHT22;6359;51.450;7.346;2023-04-24T09:51:38;8.40;99.90
12588;DHT22;6359;51.450;7.346;2023-04-24T09:54:14;8.40;99.90
12588;DHT22;6359;51.450;7.346;2023-04-24T09:56:44;8.30;99.90
12588;DHT22;6359;51.450;7.346;2023-04-24T09:59:11;8.20;99.90
12588;DHT22;6359;51.450;7.346;2023-04-24T10:01:38;8.20;99.90
12588;DHT22;6359;51.450;7.346;2023-04-24T10:04:15;8.10;99.90
12588;DHT22;6359;51.450;7.346;2023-04-24T10:06:43;8.20;99.90
12588;DHT22;6359;51.450;7.346;2023-04-24T10:09:10;8.20;99.90
12588;DHT22;6359;51.450;7.346;2023-04-24T10:11:43;8.20;99.90
12588;DHT22;6359;51.450;7.346;2023-04-24T10:14:13;8.20;99.90
12588;DHT22;6359;51.450;7.346;2023-04-24T10:16:40;8.00;99.90
12588;DHT22;6359;51.450;7.346;2023-04-24T10:19:07;8.00;99.90
12588;DHT22;6359;51.450;7.346;2023-04-24T10:21:34;7.90;99.90
12588;DHT22;6359;51.450;7.346;2023-04-24T10:24:03;7.90;99.90
12588;DHT22;6359;51.450;7.346;2023-04-24T10:26:33;7.90;99.90
12588;DHT22;6359;51.450;7.346;2023-04-24T10:29:02;8.00;99.90
12588;DHT22;6359;51.450;7.346;2023-04-24T10:31:31;7.90;99.90
12588;DHT22;6359;51.450;7.346;2023-04-24T10:34:00;7.90;99.90
12588;DHT22;6359;51.450;7.346;2023-04-24T10:36:29;7.90;99.90
12588;DHT22;6359;51.450;7.346;2023-04-24T10:39:00;7.90;99.90
12588;DHT22;6359;51.450;7.346;2023-04-24T10:41:30;8.00;99.90
12588;DHT22;6359;51.450;7.346;2023-04-24T10:44:08;8.00;99.90
12588;DHT22;6359;51.450;7.346;2023-04-24T10:46:36;8.10;99.90
12588;DHT22;6359;51.450;7.346;2023-04-24T10:49:04;8.20;99.90
12588;DHT22;6359;51.450;7.346;2023-04-24T10:51:45;8.20;99.90
12588;DHT22;6359;51.450;7.346;2023-04-24T10:54:26;8.20;99.90
12588;DHT22;6359;51.450;7.346;2023-04-24T10:57:25;8.20;99.90
12588;DHT22;6359;51.450;7.346;2023-04-24T11:00:13;8.20;99.90
12588;DHT22;6359;51.450;7.346;2023-04-24T11:02:40;8.40;99.90
12588;DHT22;6359;51.450;7.346;2023-04-24T11:05:15;8.40;99.90
12588;DHT22;6359;51.450;7.346;2023-04-24T11:08:12;8.50;99.90
12588;DHT22;6359;51.450;7.346;2023-04-24T11:10:40;8.60;99.90
12588;DHT22;6359;51.450;7.346;2023-04-24T11:13:10;8.60;99.90
12588;DHT22;6359;51.450;7.346;2023-04-24T11:15:41;8.60;99.90
12588;DHT22;6359;51.450;7.346;2023-04-24T11:18:13;8.60;99.90
12588;DHT22;6359;51.450;7.346;2023-04-24T11:20:42;8.80;99.90
12588;DHT22;6359;51.450;7.346;2023-04-24T11:23:09;8.90;99.90
12588;DHT22;6359;51.450;7.346;2023-04-24T11:25:38;9.00;99.90
12588;DHT22;6359;51.450;7.346;2023-04-24T11:28:06;9.20;99.90
12588;DHT22;6359;51.450;7.346;2023-04-24T11:30:33;9.20;99.90
12588;DHT22;6359;51.450;7.346;2023-04-24T11:33:05;9.40;99.90
12588;DHT22;6359;51.450;7.346;2023-04-24T11:35:35;9.30;99.90
12588;DHT22;6359;51.450;7.346;2023-04-24T11:38:06;9.30;99.90
12588;DHT22;6359;51.450;7.346;2023-04-24T11:40:34;9.20;99.90
12588;DHT22;6359;51.450;7.346;2023-04-24T11:43:01;9.40;99.90
12588;DHT22;6359;51.450;7.346;2023-04-24T11:45:28;9.30;99.90
12588;DHT22;6359;51.450;7.346;2023-04-24T11:47:56;9.60;99.90
12588;DHT22;6359;51.450;7.346;2023-04-24T11:50:26;9.80;99.90
12588;DHT22;6359;51.450;7.346;2023-04-24T11:52:55;10.10;99.90
12588;DHT22;6359;51.450;7.346;2023-04-24T11:55:27;10.10;99.90
12588;DHT22;6359;51.450;7.346;2023-04-24T11:57:55;10.10;99.90
12588;DHT22;6359;51.450;7.346;2023-04-24T12:00:27;9.90;99.90
12588;DHT22;6359;51.450;7.346;2023-04-24T12:03:05;10.00;99.90
12588;DHT22;6359;51.450;7.346;2023-04-24T12:05:33;9.80;99.90
12588;DHT22;6359;51.450;7.346;2023-04-24T12:08:01;9.60;99.90
12588;DHT22;6359;51.450;7.346;2023-04-24T12:10:29;9.40;99.90
12588;DHT22;6359;51.450;7.346;2023-04-24T12:12:57;9.50;99.90
12588;DHT22;6359;51.450;7.346;2023-04-24T12:15:25;9.20;99.90
12588;DHT22;6359;51.450;7.346;2023-04-24T12:17:54;9.10;99.90
12588;DHT22;6359;51.450;7.346;2023-04-24T12:20:24;8.90;99.90
12588;DHT22;6359;51.450;7.346;2023-04-24T12:22:54;9.00;99.90
12588;DHT22;6359;51.450;7.346;2023-04-24T12:25:23;9.10;99.90
12588;DHT22;6359;51.450;7.346;2023-04-24T12:27:53;9.20;99.90
12588;DHT22;6359;51.450;7.346;2023-04-24T12:30:21;9.50;99.90
12588;DHT22;6359;51.450;7.346;2023-04-24T12:32:49;10.10;99.90
12588;DHT22;6359;51.450;7.346;2023-04-24T12:35:19;10.60;99.90
12588;DHT22;6359;51.450;7.346;2023-04-24T12:37:47;11.10;99.90
12588;DHT22;6359;51.450;7.346;2023-04-24T12:40:16;11.60;99.90
12588;DHT22;6359;51.450;7.346;2023-04-24T12:42:44;11.60;99.90
12588;DHT22;6359;51.450;7.346;2023-04-24T12:45:12;11.60;99.90
12588;DHT22;6359;51.450;7.346;2023-04-24T12:47:40;11.50;99.90
12588;DHT22;6359;51.450;7.346;2023-04-24T12:50:08;11.10;99.90
12588;DHT22;6359;51.450;7.346;2023-04-24T12:52:35;10.80;99.90
12588;DHT22;6359;51.450;7.346;2023-04-24T12:55:03;10.50;99.90
12588;DHT22;6359;51.450;7.346;2023-04-24T12:57:34;10.40;99.90
12588;DHT22;6359;51.450;7.346;2023-04-24T13:00:01;10.30;99.90
12588;DHT22;6359;51.450;7.346;2023-04-24T13:02:30;10.30;99.90
12588;DHT22;6359;51.450;7.346;2023-04-24T13:04:57;10.30;99.90
12588;DHT22;6359;51.450;7.346;2023-04-24T13:07:24;10.00;99.90
12588;DHT22;6359;51.450;7.346;2023-04-24T13:09:52;9.90;99.90
12588;DHT22;6359;51.450;7.346;2023-04-24T13:12:19;9.90;99.90
12588;DHT22;6359;51.450;7.346;2023-04-24T13:14:48;10.00;99.90
12588;DHT22;6359;51.450;7.346;2023-04-24T13:17:15;10.40;99.90
12588;DHT22;6359;51.450;7.346;2023-04-24T13:19:43;10.70;99.90
12588;DHT22;6359;51.450;7.346;2023-04-24T13:22:11;10.80;99.90
12588;DHT22;6359;51.450;7.346;2023-04-24T13:24:39;10.90;99.90
12588;DHT22;6359;51.450;7.346;2023-04-24T13:27:07;11.20;99.90
12588;DHT22;6359;51.450;7.346;2023-04-24T13:29:34;11.30;99.90
12588;DHT22;6359;51.450;7.346;2023-04-24T13:32:02;11.40;99.90
12588;DHT22;6359;51.450;7.346;2023-04-24T13:34:29;11.70;99.90
12588;DHT22;6359;51.450;7.346;2023-04-24T13:36:58;11.20;99.90
12588;DHT22;6359;51.450;7.346;2023-04-24T13:39:25;11.10;99.90
12588;DHT22;6359;51.450;7.346;2023-04-24T13:41:54;11.20;99.90
12588;DHT22;6359;51.450;7.346;2023-04-24T13:44:22;11.20;99.90
12588;DHT22;6359;51.450;7.346;2023-04-24T13:46:52;11.20;99.90
12588;DHT22;6359;51.450;7.346;2023-04-24T13:49:21;11.10;99.90
12588;DHT22;6359;51.450;7.346;2023-04-24T13:51:50;10.90;99.90
12588;DHT22;6359;51.450;7.346;2023-04-24T13:54:17;10.80;99.90
12588;DHT22;6359;51.450;7.346;2023-04-24T13:56:44;10.80;99.90
12588;DHT22;6359;51.450;7.346;2023-04-24T13:59:12;10.70;99.90
12588;DHT22;6359;51.450;7.346;2023-04-24T14:01:39;10.60;99.90
12588;DHT22;6359;51.450;7.346;2023-04-24T14:04:06;10.70;99.90
12588;DHT22;6359;51.450;7.346;2023-04-24T14:06:34;10.70;99.90
12588;DHT22;6359;51.450;7.346;2023-04-24T14:09:01;10.80;99.90
12588;DHT22;6359;51.450;7.346;2023-04-24T14:11:28;10.90;99.90
12588;DHT22;6359;51.450;7.346;2023-04-24T14:13:55;11.00;99.90
12588;DHT22;6359;51.450;7.346;2023-04-24T14:16:22;11.00;99.90
12588;DHT22;6359;51.450;7.346;2023-04-24T14:18:50;11.00;99.90
12588;DHT22;6359;51.450;7.346;2023-04-24T14:21:16;11.10;99.90
12588;DHT22;6359;51.450;7.346;2023-04-24T14:23:45;11.20;99.90
12588;DHT22;6359;51.450;7.346;2023-04-24T14:26:12;11.30;99.90
12588;DHT22;6359;51.450;7.346;2023-04-24T14:28:38;11.30;99.90
12588;DHT22;6359;51.450;7.346;2023-04-24T14:31:06;11.40;99.90
12588;DHT22;6359;51.450;7.346;2023-04-24T14:33:33;11.40;99.90
12588;DHT22;6359;51.450;7.346;2023-04-24T14:36:00;11.60;99.90
12588;DHT22;6359;51.450;7.346;2023-04-24T14:38:28;11.80;99.90
12588;DHT22;6359;51.450;7.346;2023-04-24T14:40:56;12.00;99.90
12588;DHT22;6359;51.450;7.346;2023-04-24T14:43:23;11.80;99.90
12588;DHT22;6359;51.450;7.346;2023-04-24T14:45:50;11.70;99.90
12588;DHT22;6359;51.450;7.346;2023-04-24T14:48:17;11.60;99.90
12588;DHT22;6359;51.450;7.346;2023-04-24T14:50:44;11.50;99.90
12588;DHT22;6359;51.450;7.346;2023-04-24T14:53:11;11.30;99.90
12588;DHT22;6359;51.450;7.346;2023-04-24T14:55:38;11.20;99.90
12588;DHT22;6359;51.450;7.346;2023-04-24T14:58:06;11.10;99.90
12588;DHT22;6359;51.450;7.346;2023-04-24T15:00:33;11.00;99.90
12588;DHT22;6359;51.450;7.346;2023-04-24T15:03:00;10.90;99.90
12588;DHT22;6359;51.450;7.346;2023-04-24T15:05:27;10.90;99.90
12588;DHT22;6359;51.450;7.346;2023-04-24T15:07:54;10.90;99.90
12588;DHT22;6359;51.450;7.346;2023-04-24T15:10:21;10.90;99.90
12588;DHT22;6359;51.450;7.346;2023-04-24T15:12:49;10.80;99.90
12588;DHT22;6359;51.450;7.346;2023-04-24T15:15:17;10.70;99.90
12588;DHT22;6359;51.450;7.346;2023-04-24T15:17:44;10.50;99.90
12588;DHT22;6359;51.450;7.346;2023-04-24T15:20:11;10.20;99.90
12588;DHT22;6359;51.450;7.346;2023-04-24T15:22:38;10.00;99.90
12588;DHT22;6359;51.450;7.346;2023-04-24T15:25:05;9.90;99.90
12588;DHT22;6359;51.450;7.346;2023-04-24T15:27:40;9.80;99.90
12588;DHT22;6359;51.450;7.346;2023-04-24T15:30:08;9.50;99.90
12588;DHT22;6359;51.450;7.346;2023-04-24T15:32:37;9.20;99.90
12588;DHT22;6359;51.450;7.346;2023-04-24T15:35:05;9.00;99.90
12588;DHT22;6359;51.450;7.346;2023-04-24T15:37:32;9.20;99.90
12588;DHT22;6359;51.450;7.346;2023-04-24T15:39:59;9.40;99.90
12588;DHT22;6359;51.450;7.346;2023-04-24T15:42:26;9.50;99.90
12588;DHT22;6359;51.450;7.346;2023-04-24T15:44:53;9.50;99.90
12588;DHT22;6359;51.450;7.346;2023-04-24T15:47:20;9.60;99.90
12588;DHT22;6359;51.450;7.346;2023-04-24T15:49:48;9.80;99.90
12588;DHT22;6359;51.450;7.346;2023-04-24T15:52:15;10.00;99.90
12588;DHT22;6359;51.450;7.346;2023-04-24T15:54:42;10.20;99.90
12588;DHT22;6359;51.450;7.346;2023-04-24T15:57:09;10.30;99.90
12588;DHT22;6359;51.450;7.346;2023-04-24T15:59:37;10.30;99.90
12588;DHT22;6359;51.450;7.346;2023-04-24T16:02:04;10.40;99.90